DAUH

Oued Irara Airport

Hassi Messaoud, Algeria
METAR DAUH 260300Z 34005KT CAVOK 07/M02 Q1011
Observed Flight Rules
Feb-26 @ 03:00 UTC (34 minutes ago) Visual Flight Rules
Wind Visibility Clouds
340° at 5 knots 10,000+ meters
  • Clear skies
Temperatures Readings
Current 7°C / 45°F
Dewpoint -2°C / 28°F
Humidity 53%
Altimeter 29.85" Hg
Pressure 1011 hPa
Elevation 142
METAR DAUH 260300Z 34005KT CAVOK 07/M02 Q1011
Observed Flight Rules
Feb-26 @ 03:00 UTC
(34 minutes ago)
VFR
Wind Visibility
340° at 5 knots 10,000+ meters
Clouds
  • Clear skies
Temperature Dewpoint
7°C / 45°F -2°C / 28°F
Humidity Altimeter Pressure
53% 29.85" Hg 1011 hPa